Flight Track Log - Related Links

Times and Time Zones

All times are in EDT time to prevent confusion due to time zone crossing. See the QXE2633 flight status page for this flight to view local times or setup timezone preferences in your user account.

Time Position Orientation Groundspeed Altitude Reporting Facility
EDT Latitude Longitude Course Direction KTS MPH feet Rate Location/Type
Wed 05:37:00 PM 45.0426 -122.4065 170° South  Level FlightAware Approximate
Wed 05:38:00 PM 44.9641 -122.3895 172° South  Level FlightAware Approximate
Wed 05:39:00 PM 44.8854 -122.3737 172° South  Level FlightAware Approximate
Wed 05:40:00 PM 44.8073 -122.3538 168° South  Level FlightAware Approximate
Wed 05:41:00 PM 44.7296 -122.3305 168° South  Level FlightAware Approximate
Wed 05:42:00 PM 44.6518 -122.3087 170° South  Level FlightAware Approximate
Wed 05:43:00 PM 44.5736 -122.2892 170° South  Level FlightAware Approximate
Wed 05:44:00 PM 44.4954 -122.2697 170° South  Level FlightAware Approximate
Wed 05:45:00 PM 44.4168 -122.2533 172° South  Level FlightAware Approximate
Wed 05:46:00 PM 44.3384 -122.2351 170° South  Level FlightAware Approximate
Wed 05:47:00 PM 44.2602 -122.2163 170° South  Level FlightAware Approximate
Wed 05:48:00 PM 44.1819 -122.1975 170° South  Level FlightAware Approximate
Wed 05:49:00 PM 44.1036 -122.1787 170° South  Level FlightAware Approximate
Wed 05:50:00 PM 44.0253 -122.1600 170° South  Level FlightAware Approximate
Wed 05:51:00 PM 43.9471 -122.1411 170° South  Level FlightAware Approximate
Wed 05:52:00 PM 43.8689 -122.1218 170° South  Level FlightAware Approximate
Wed 05:53:00 PM 43.7907 -122.1026 170° South  Level FlightAware Approximate
Wed 05:54:00 PM 43.7124 -122.0835 170° South  Level FlightAware Approximate
Wed 05:55:00 PM 43.6342 -122.0644 170° South  Level FlightAware Approximate
Wed 05:56:00 PM 43.5560 -122.0453 170° South  Level FlightAware Approximate
Wed 05:57:00 PM 43.4778 -122.0263 170° South  Level FlightAware Approximate
Wed 05:58:00 PM 43.3995 -122.0074 170° South  Level FlightAware Approximate
Wed 05:59:00 PM 43.3257 -121.9895 170° South  Level FlightAware Approximate
Wed 06:00:00 PM 43.2519 -121.9720 170° South  Level FlightAware Approximate
Wed 06:01:00 PM 43.1781 -121.9546 170° South  Level FlightAware Approximate
Wed 06:02:00 PM 43.1042 -121.9372 170° South  Level FlightAware Approximate
Wed 06:03:00 PM 43.0303 -121.9199 170° South  Level FlightAware Approximate
Wed 06:04:00 PM 42.9565 -121.9026 170° South  Level FlightAware Approximate
Wed 06:05:00 PM 42.8826 -121.8854 170° South  Level FlightAware Approximate
Wed 06:06:00 PM 42.8088 -121.8682 170° South  Level FlightAware Approximate
Wed 06:07:00 PM 42.7349 -121.8511 170° South  Level FlightAware Approximate
Wed 06:08:00 PM 42.6610 -121.8339 170° South  Level FlightAware Approximate
Wed 06:09:00 PM 42.5872 -121.8169 170° South  Level FlightAware Approximate
Wed 06:10:00 PM 42.5133 -121.7998 170° South  Level FlightAware Approximate
Wed 06:11:00 PM 42.4394 -121.7829 170° South  Level FlightAware Approximate
Wed 06:12:00 PM 42.3655 -121.7659 170° South  Level FlightAware Approximate
Wed 06:13:00 PM 42.2916 -121.7490 170° South  Level FlightAware Approximate
Wed 06:14:00 PM 42.2178 -121.7321 170° South  Level FlightAware Approximate
Wed 06:15:00 PM 42.1438 -121.7167 180° South  Level FlightAware Approximate
Wed 06:16:00 PM 42.0689 -121.7167 180° South  Level FlightAware Approximate
Wed 06:17:00 PM 41.9939 -121.7167 180° South  Level FlightAware Approximate
Wed 06:18:00 PM 41.9190 -121.7167 180° South  Level FlightAware Approximate
Wed 06:19:00 PM 41.8441 -121.7167 180° South  Level FlightAware Approximate
Wed 06:20:00 PM 41.7691 -121.7167 180° South  Level FlightAware Approximate
Wed 06:21:00 PM 41.6942 -121.7167 180° South  Level FlightAware Approximate
Wed 06:22:00 PM 41.6193 -121.7167 180° South  Level FlightAware Approximate
Wed 06:23:00 PM 41.5444 -121.7167 180° South  Level FlightAware Approximate
Wed 06:24:00 PM 41.4694 -121.7167 180° South  Level FlightAware Approximate
Wed 06:25:00 PM 41.3945 -121.7167 180° South  Level FlightAware Approximate
Wed 06:26:00 PM 41.3196 -121.7167 180° South  Level FlightAware Approximate
Wed 06:27:00 PM 41.2446 -121.7167 180° South  Level FlightAware Approximate
Wed 06:28:00 PM 41.1697 -121.7167 180° South  Level FlightAware Approximate
Wed 06:29:00 PM 41.0948 -121.7167 180° South  Level FlightAware Approximate
Wed 06:30:00 PM 41.0198 -121.7167 180° South  Level FlightAware Approximate
Wed 06:31:00 PM 40.9449 -121.7167 180° South  Level FlightAware Approximate
Wed 06:32:00 PM 40.8700 -121.7167 180° South  Level FlightAware Approximate
Wed 06:33:00 PM 40.7950 -121.7167 180° South  Level FlightAware Approximate
Wed 06:34:00 PM 40.7201 -121.7167 180° South  Level FlightAware Approximate
Wed 06:35:00 PM 40.6452 -121.7167 180° South  Level FlightAware Approximate
Wed 06:36:00 PM 40.5703 -121.7167 180° South  Level FlightAware Approximate
Wed 06:37:00 PM 40.4953 -121.7167 180° South  Level FlightAware Approximate
Wed 06:38:00 PM 40.4205 -121.7141 171° South  Level FlightAware Approximate
Wed 06:39:00 PM 40.3464 -121.6997 176° South  Level FlightAware Approximate
Wed 06:40:00 PM 40.2717 -121.6929 176° South  Level FlightAware Approximate
Wed 06:41:00 PM 40.1969 -121.6861 176° South  Level FlightAware Approximate
Wed 06:42:00 PM 40.1221 -121.6833 180° South  Level FlightAware Approximate
Wed 06:43:00 PM 40.0473 -121.6775 175° South  Level FlightAware Approximate
Wed 06:44:00 PM 39.9733 -121.6693 175° South  Level FlightAware Approximate
Wed 06:45:00 PM 39.8992 -121.6620 176° South  Level FlightAware Approximate
Wed 06:46:00 PM 39.8250 -121.6553 176° South  Level FlightAware Approximate
Wed 06:47:00 PM 39.7509 -121.6485 176° South  Level FlightAware Approximate
Wed 06:48:00 PM 39.6768 -121.6418 176° South  Level FlightAware Approximate
Wed 06:49:00 PM 39.6026 -121.6351 176° South  Level FlightAware Approximate
Wed 06:50:00 PM 39.5284 -121.6333 180° South  Level FlightAware Approximate
Wed 06:51:00 PM 39.4541 -121.6304 176° South  Level FlightAware Approximate
Wed 06:52:00 PM 39.3800 -121.6230 176° South  Level FlightAware Approximate
Wed 06:53:00 PM 39.3059 -121.6167 180° South  Level FlightAware Approximate
Wed 06:54:00 PM 39.2316 -121.6164 174° South  Level FlightAware Approximate
Wed 06:55:00 PM 39.1573 -121.6071 174° South  Level FlightAware Approximate
Wed 06:56:00 PM 39.0830 -121.5976 174° South  Level FlightAware Approximate
Wed 06:57:00 PM 39.0088 -121.5870 174° South  Level FlightAware Approximate
Wed 06:58:00 PM 38.9343 -121.5833 180° South  Level FlightAware Approximate
Wed 06:59:00 PM 38.8596 -121.5833 180° South  Level FlightAware Approximate
Wed 07:00:00 PM 38.7849 -121.5833 180° South  Level FlightAware Approximate
Wed 07:01:00 PM 38.7103 -121.5833 180° South  Level FlightAware Approximate
Wed 07:02:00 PM 38.6954 -121.5908 180° South  Level Estimated
Wed 07:03:00 PM 38.6954 -121.5908 180° South  Level Estimated
Wed 07:04:00 PM 38.6954 -121.5908 180° South  Level Estimated
Wed 07:05:00 PM 38.6954 -121.5908 180° South  Level Estimated
Wed 07:06:00 PM 38.6954 -121.5908 180° South  Level Estimated
Wed 07:07:00 PM 38.6954 -121.5908 180° South  Level Estimated
Wed 07:08:00 PM 38.6954 -121.5908 180° South  Level Estimated
Wed 07:09:00 PM 38.6954 -121.5908 180° South  Level Estimated
Wed 07:10:00 PM 38.6954 -121.5908 180° South  Level Estimated
Wed 07:11:00 PM 38.6954 -121.5908 180° South  Level Estimated
Wed 07:12:00 PM 38.6954 -121.5908 180° South  Level Estimated

Login

Don't have an account? Register now (free) for customized features, flight alerts, and more!